createdAt,value
2018-03-17T00:01:25.489Z,6.37
2018-03-17T00:03:53.042Z,5.43
2018-03-17T00:06:20.537Z,5.60
2018-03-17T00:08:48.098Z,5.53
2018-03-17T00:11:15.581Z,5.70
2018-03-17T00:13:43.844Z,4.93
2018-03-17T00:16:11.350Z,5.80
2018-03-17T00:18:38.824Z,6.57
2018-03-17T00:21:06.365Z,5.50
2018-03-17T00:23:33.866Z,6.23
2018-03-17T00:26:01.356Z,5.83
2018-03-17T00:28:29.661Z,5.57
2018-03-17T00:30:57.168Z,5.27
2018-03-17T00:33:24.685Z,5.30
2018-03-17T00:35:52.171Z,5.93
2018-03-17T00:38:19.666Z,5.80
2018-03-17T00:40:47.944Z,5.00
2018-03-17T00:43:15.500Z,5.77
2018-03-17T00:45:43.751Z,6.33
2018-03-17T00:48:11.241Z,5.50
2018-03-17T00:50:38.807Z,6.40
2018-03-17T00:53:06.369Z,5.77
2018-03-17T00:55:33.868Z,5.53
2018-03-17T00:58:01.381Z,4.57
2018-03-17T01:00:29.004Z,5.73
2018-03-17T01:02:57.264Z,4.70
2018-03-17T01:05:24.744Z,6.10
2018-03-17T01:07:53.046Z,5.13
2018-03-17T01:10:20.535Z,4.80
2018-03-17T01:12:48.063Z,5.50
2018-03-17T01:15:15.559Z,6.10
2018-03-17T01:17:43.055Z,5.43
2018-03-17T01:20:10.578Z,5.67
2018-03-17T01:22:38.083Z,5.77
2018-03-17T01:25:05.593Z,5.50
2018-03-17T01:27:33.113Z,6.30
2018-03-17T01:30:00.613Z,5.47
2018-03-17T01:32:28.133Z,6.43
2018-03-17T01:34:55.635Z,6.03
2018-03-17T01:37:23.905Z,5.63
2018-03-17T01:39:52.190Z,6.33
2018-03-17T01:42:20.455Z,5.23
2018-03-17T01:44:48.737Z,5.47
2018-03-17T01:47:17.079Z,5.90
2018-03-17T01:49:44.573Z,5.97
2018-03-17T01:52:12.988Z,5.63
2018-03-17T01:54:40.475Z,5.43
2018-03-17T01:57:07.956Z,4.73
2018-03-17T01:59:36.218Z,5.07
2018-03-17T02:02:03.710Z,5.03
2018-03-17T02:04:31.199Z,5.67
2018-03-17T02:06:58.687Z,5.40
2018-03-17T02:09:26.210Z,5.80
2018-03-17T02:11:53.707Z,4.60
2018-03-17T02:14:22.009Z,5.20
2018-03-17T02:16:49.527Z,5.20
2018-03-17T02:19:17.812Z,5.23
2018-03-17T02:21:45.399Z,5.73
2018-03-17T02:24:12.886Z,5.50
2018-03-17T02:26:40.383Z,4.93
2018-03-17T02:29:07.877Z,5.47
2018-03-17T02:31:35.370Z,4.83
2018-03-17T02:34:02.877Z,5.30
2018-03-17T02:36:30.356Z,5.90
2018-03-17T02:38:57.841Z,5.33
2018-03-17T02:41:25.344Z,5.30
2018-03-17T02:43:52.832Z,5.30
2018-03-17T02:46:20.334Z,5.80
2018-03-17T02:48:48.649Z,4.47
2018-03-17T02:51:16.266Z,4.90
2018-03-17T02:53:44.441Z,6.40
2018-03-17T02:56:12.697Z,5.10
2018-03-17T02:58:40.177Z,6.17
2018-03-17T03:01:08.491Z,5.00
2018-03-17T03:03:35.977Z,5.60
2018-03-17T03:06:03.469Z,5.80
2018-03-17T03:08:31.801Z,5.70
2018-03-17T03:10:59.304Z,4.90
2018-03-17T03:13:27.577Z,5.70
2018-03-17T03:15:55.858Z,5.37
2018-03-17T03:18:24.128Z,5.77
2018-03-17T03:20:52.406Z,6.30
2018-03-17T03:23:20.685Z,6.17
2018-03-17T03:25:48.252Z,5.47
2018-03-17T03:28:15.759Z,6.10
2018-03-17T03:30:43.266Z,5.37
2018-03-17T03:33:11.632Z,5.43
2018-03-17T03:35:39.142Z,4.67
2018-03-17T03:38:06.625Z,5.80
2018-03-17T03:40:34.102Z,5.80
2018-03-17T03:43:02.501Z,5.70
2018-03-17T03:45:29.987Z,5.50
2018-03-17T03:47:57.483Z,5.37
2018-03-17T03:50:25.790Z,4.60
2018-03-17T03:52:53.305Z,4.87
2018-03-17T03:55:21.583Z,5.20
2018-03-17T03:57:49.986Z,5.87
2018-03-17T04:00:17.483Z,5.83
2018-03-17T04:02:45.023Z,5.60
2018-03-17T04:05:12.533Z,5.80
2018-03-17T04:07:40.823Z,4.80
2018-03-17T04:10:09.109Z,4.50
2018-03-17T04:12:36.591Z,5.90
2018-03-17T04:15:04.120Z,5.03
2018-03-17T04:17:31.771Z,4.83
2018-03-17T04:20:00.031Z,4.70
2018-03-17T04:22:28.307Z,4.63
2018-03-17T04:24:56.595Z,5.33
2018-03-17T04:27:24.089Z,5.20
2018-03-17T04:29:51.589Z,4.90
2018-03-17T04:32:19.179Z,5.10
2018-03-17T04:34:46.667Z,5.43
2018-03-17T04:37:14.163Z,5.00
2018-03-17T04:39:42.469Z,4.33
2018-03-17T04:42:09.969Z,4.90
2018-03-17T04:44:37.447Z,5.07
2018-03-17T04:47:04.946Z,5.23
2018-03-17T04:49:32.445Z,4.87
2018-03-17T04:51:59.932Z,4.67
2018-03-17T04:54:28.202Z,5.20
2018-03-17T04:56:56.474Z,4.47
2018-03-17T04:59:24.739Z,4.87
2018-03-17T05:01:52.247Z,4.67
2018-03-17T05:04:19.728Z,4.20
2018-03-17T05:06:47.229Z,4.90
2018-03-17T05:09:15.503Z,5.23
2018-03-17T05:11:43.786Z,5.63
2018-03-17T05:14:11.289Z,5.00
2018-03-17T05:16:38.901Z,5.60
2018-03-17T05:19:06.468Z,4.70
2018-03-17T05:21:34.041Z,6.33
2018-03-17T05:24:01.547Z,5.30
2018-03-17T05:26:29.031Z,5.20
2018-03-17T05:28:56.530Z,5.83
2018-03-17T05:31:24.107Z,5.87
2018-03-17T05:33:51.615Z,5.77
2018-03-17T05:36:19.127Z,5.70
2018-03-17T05:38:46.607Z,5.13
2018-03-17T05:41:14.893Z,5.23
2018-03-17T05:43:42.440Z,5.90
2018-03-17T05:46:10.693Z,5.60
2018-03-17T05:48:38.965Z,5.33
2018-03-17T05:51:06.554Z,5.60
2018-03-17T05:53:34.107Z,6.90
2018-03-17T05:56:02.364Z,5.87
2018-03-17T05:58:30.638Z,5.90
2018-03-17T06:00:58.915Z,5.30
2018-03-17T06:03:27.179Z,5.30
2018-03-17T06:05:54.716Z,6.00
2018-03-17T06:08:22.208Z,5.83
2018-03-17T06:10:50.502Z,5.20
2018-03-17T06:13:18.045Z,6.17
2018-03-17T06:15:46.326Z,6.67
2018-03-17T06:18:13.851Z,7.23
2018-03-17T06:20:41.359Z,5.50
2018-03-17T06:23:08.869Z,5.27
2018-03-17T06:25:36.343Z,4.90
2018-03-17T06:28:04.613Z,5.20
2018-03-17T06:30:32.885Z,6.67
2018-03-17T06:33:01.193Z,6.33
2018-03-17T06:35:28.742Z,6.50
2018-03-17T06:37:56.228Z,6.10
2018-03-17T06:40:23.746Z,6.93
2018-03-17T06:42:51.236Z,5.53
2018-03-17T06:45:18.761Z,6.77
2018-03-17T06:47:46.266Z,6.40
2018-03-17T06:50:14.342Z,6.70
2018-03-17T06:52:42.644Z,6.20
2018-03-17T06:55:10.925Z,6.70
2018-03-17T06:57:39.220Z,6.60
2018-03-17T07:00:06.733Z,6.97
2018-03-17T07:02:34.347Z,7.40
2018-03-17T07:05:01.875Z,8.27
2018-03-17T07:07:30.150Z,8.50
2018-03-17T07:09:58.441Z,7.37
2018-03-17T07:12:26.007Z,8.43
2018-03-17T07:14:53.516Z,9.00
2018-03-17T07:17:21.004Z,9.47
2018-03-17T07:19:49.287Z,10.20
2018-03-17T07:22:16.807Z,11.07
2018-03-17T07:24:44.415Z,9.90
2018-03-17T07:27:11.941Z,10.47
2018-03-17T07:29:40.249Z,11.27
2018-03-17T07:32:07.839Z,12.00
2018-03-17T07:34:35.308Z,11.23
2018-03-17T07:37:02.924Z,12.90
2018-03-17T07:39:30.481Z,11.83
2018-03-17T07:41:58.015Z,11.10
2018-03-17T07:44:26.286Z,11.40
2018-03-17T07:46:54.561Z,11.20
2018-03-17T07:49:22.849Z,12.07
2018-03-17T07:51:50.360Z,12.20
2018-03-17T07:54:17.888Z,12.10
2018-03-17T07:56:45.387Z,12.80
2018-03-17T07:59:12.965Z,13.30
2018-03-17T08:01:41.226Z,14.23
2018-03-17T08:04:09.508Z,13.03
2018-03-17T08:06:37.772Z,13.93
2018-03-17T08:09:06.064Z,14.87
2018-03-17T08:11:34.354Z,14.93
2018-03-17T08:14:01.865Z,17.23
2018-03-17T08:16:29.367Z,17.10
2018-03-17T08:18:56.874Z,19.70
2018-03-17T08:21:24.410Z,19.57
2018-03-17T08:23:51.907Z,19.43
2018-03-17T08:26:20.201Z,19.67
2018-03-17T08:28:48.460Z,20.47
2018-03-17T08:31:16.725Z,21.30
2018-03-17T08:33:44.237Z,22.60
2018-03-17T08:36:11.723Z,26.00
2018-03-17T08:38:39.259Z,24.53
2018-03-17T08:41:06.812Z,26.07
2018-03-17T08:43:34.331Z,28.43
2018-03-17T08:46:02.594Z,28.37
2018-03-17T08:48:30.843Z,28.60
2018-03-17T08:50:58.345Z,29.27
2018-03-17T08:53:25.919Z,27.90
2018-03-17T08:55:53.420Z,26.97
2018-03-17T08:58:20.927Z,31.07
2018-03-17T09:00:48.541Z,27.73
2018-03-17T09:03:16.138Z,27.90
2018-03-17T09:05:43.708Z,25.47
2018-03-17T09:08:11.222Z,25.73
2018-03-17T09:10:38.891Z,23.47
2018-03-17T09:13:07.177Z,26.00
2018-03-17T09:15:35.461Z,25.67
2018-03-17T09:18:14.389Z,23.73
2018-03-17T09:20:41.908Z,25.23
2018-03-17T09:23:09.398Z,27.33
2018-03-17T09:25:36.963Z,27.53
2018-03-17T09:28:04.450Z,25.13
2018-03-17T09:30:31.944Z,29.80
2018-03-17T09:33:00.226Z,24.47
2018-03-17T09:35:28.525Z,30.87
2018-03-17T09:37:56.162Z,26.20
2018-03-17T09:40:24.421Z,27.80
2018-03-17T09:42:52.005Z,26.57
2018-03-17T09:45:20.310Z,26.60
2018-03-17T09:47:47.840Z,27.33
2018-03-17T09:50:15.418Z,25.63
2018-03-17T09:52:42.996Z,24.40
2018-03-17T09:55:10.495Z,25.10
2018-03-17T09:57:38.811Z,22.67
2018-03-17T10:00:06.332Z,24.93
2018-03-17T10:02:34.597Z,27.13
2018-03-17T10:05:02.867Z,23.20
2018-03-17T10:07:30.363Z,24.27
2018-03-17T10:09:57.888Z,24.63
2018-03-17T10:12:26.156Z,24.00
2018-03-17T10:14:54.471Z,26.27
2018-03-17T10:17:21.967Z,23.83
2018-03-17T10:19:49.465Z,24.33
2018-03-17T10:22:17.739Z,23.63
2018-03-17T10:24:46.014Z,25.23
2018-03-17T10:27:14.257Z,22.30
2018-03-17T10:29:41.843Z,24.87
2018-03-17T10:32:10.105Z,25.13
2018-03-17T10:34:38.509Z,27.43
2018-03-17T10:37:06.009Z,25.60
2018-03-17T10:39:33.530Z,25.10
2018-03-17T10:42:01.047Z,23.13
2018-03-17T10:44:28.571Z,24.87
2018-03-17T10:46:56.097Z,24.10
2018-03-17T10:49:23.663Z,24.93
2018-03-17T10:51:51.161Z,27.17
2018-03-17T10:54:18.660Z,27.77
2018-03-17T10:56:46.168Z,28.87
2018-03-17T10:59:13.661Z,31.93
2018-03-17T11:01:41.944Z,33.70
2018-03-17T11:04:09.466Z,29.73
2018-03-17T11:06:36.969Z,34.17
2018-03-17T11:09:04.455Z,31.80
2018-03-17T11:11:32.180Z,30.00
2018-03-17T11:13:59.667Z,31.03
2018-03-17T11:16:27.165Z,33.53
2018-03-17T11:18:55.440Z,33.70
2018-03-17T11:21:22.943Z,35.37
2018-03-17T11:23:50.464Z,39.20
2018-03-17T11:26:18.749Z,37.40
2018-03-17T11:28:47.016Z,32.13
2018-03-17T11:31:15.368Z,37.33
2018-03-17T11:33:42.891Z,38.40
2018-03-17T11:36:10.476Z,42.20
2018-03-17T11:38:37.976Z,32.73
2018-03-17T11:41:06.249Z,36.47
2018-03-17T11:43:33.760Z,34.07
2018-03-17T11:46:01.259Z,39.70
2018-03-17T11:48:28.780Z,39.80
2018-03-17T11:50:56.282Z,37.77
2018-03-17T11:53:23.767Z,39.40
2018-03-17T11:55:51.273Z,39.80
2018-03-17T11:58:19.541Z,34.10
2018-03-17T12:00:47.068Z,30.03
2018-03-17T12:03:14.606Z,33.57
2018-03-17T12:05:42.117Z,33.83
2018-03-17T12:08:10.418Z,38.77
2018-03-17T12:10:37.941Z,36.40
2018-03-17T12:13:05.524Z,39.00
2018-03-17T12:15:33.769Z,37.00
2018-03-17T12:18:01.271Z,31.30
2018-03-17T12:20:28.805Z,34.73
2018-03-17T12:22:57.091Z,35.80
2018-03-17T12:25:24.582Z,35.70
2018-03-17T12:27:52.157Z,31.33
2018-03-17T12:30:19.782Z,33.73
2018-03-17T12:32:47.273Z,32.20
2018-03-17T12:35:14.805Z,32.80
2018-03-17T12:37:42.325Z,30.23
2018-03-17T12:40:10.590Z,30.10
2018-03-17T12:42:38.864Z,31.20
2018-03-17T12:45:07.124Z,30.93
2018-03-17T12:47:34.670Z,32.03
2018-03-17T12:50:02.160Z,32.00
2018-03-17T12:52:30.448Z,35.07
2018-03-17T12:54:57.958Z,30.40
2018-03-17T12:57:25.485Z,31.30
2018-03-17T12:59:53.007Z,33.17
2018-03-17T13:02:21.289Z,27.60
2018-03-17T13:04:49.584Z,31.47
2018-03-17T13:07:17.074Z,28.40
2018-03-17T13:09:44.606Z,31.33
2018-03-17T13:12:12.119Z,30.47
2018-03-17T13:14:40.396Z,33.97
2018-03-17T13:17:08.722Z,36.43
2018-03-17T13:19:36.348Z,35.27
2018-03-17T13:22:03.854Z,33.70
2018-03-17T13:24:31.357Z,33.07
2018-03-17T13:27:10.593Z,32.10
2018-03-17T13:29:38.154Z,36.37
2018-03-17T13:35:01.708Z,34.10
2018-03-17T13:37:37.848Z,36.03
2018-03-17T13:40:17.321Z,32.27
2018-03-17T13:42:45.603Z,33.60
2018-03-17T13:45:13.119Z,30.60
2018-03-17T13:47:40.633Z,29.70
2018-03-17T13:50:08.120Z,29.30
2018-03-17T13:52:35.661Z,28.07
2018-03-17T13:55:03.168Z,28.47
2018-03-17T13:57:31.441Z,30.40
2018-03-17T13:59:59.709Z,29.00
2018-03-17T14:02:28.133Z,27.43
2018-03-17T14:04:55.695Z,26.93
2018-03-17T14:07:23.193Z,27.20
2018-03-17T14:09:50.704Z,27.70
2018-03-17T14:12:18.280Z,26.80
2018-03-17T14:14:45.796Z,27.67
2018-03-17T14:17:14.078Z,27.73
2018-03-17T14:19:41.629Z,28.97
2018-03-17T14:22:09.191Z,24.80
2018-03-17T14:24:36.927Z,27.07
2018-03-17T14:27:05.242Z,25.30
2018-03-17T14:29:32.757Z,23.83
2018-03-17T14:32:01.099Z,26.30
2018-03-17T14:34:28.639Z,27.23
2018-03-17T14:36:56.229Z,24.53
2018-03-17T14:39:23.719Z,26.97
2018-03-17T14:41:52.005Z,26.50
2018-03-17T14:44:19.529Z,26.57
2018-03-17T14:46:47.064Z,23.07
2018-03-17T14:49:14.589Z,24.37
2018-03-17T14:51:42.080Z,24.93
2018-03-17T14:54:09.693Z,24.23
2018-03-17T14:56:37.198Z,24.50
2018-03-17T14:59:04.742Z,24.63
2018-03-17T15:01:32.243Z,27.60
2018-03-17T15:04:00.511Z,24.73
2018-03-17T15:06:28.801Z,24.67
2018-03-17T15:08:57.078Z,23.63
2018-03-17T15:11:25.356Z,24.20
2018-03-17T15:13:53.634Z,24.13
2018-03-17T15:16:21.163Z,24.90
2018-03-17T15:18:48.738Z,26.17
2018-03-17T15:21:17.028Z,22.40
2018-03-17T15:23:44.558Z,24.20
2018-03-17T15:26:12.822Z,21.87
2018-03-17T15:28:40.320Z,24.10
2018-03-17T15:31:07.827Z,24.70
2018-03-17T15:33:35.373Z,23.20
2018-03-17T15:36:02.875Z,25.10
2018-03-17T15:38:31.277Z,22.20
2018-03-17T15:40:58.773Z,23.20
2018-03-17T15:43:26.257Z,21.90
2018-03-17T15:45:54.536Z,23.07
2018-03-17T15:48:22.784Z,23.33
2018-03-17T15:50:50.307Z,23.53
2018-03-17T15:53:17.792Z,24.87
2018-03-17T15:55:45.390Z,24.43
2018-03-17T15:58:12.909Z,26.97
2018-03-17T16:00:40.456Z,23.80
2018-03-17T16:03:08.084Z,23.13
2018-03-17T16:05:35.595Z,24.63
2018-03-17T16:08:03.100Z,25.50
2018-03-17T16:10:30.607Z,22.77
2018-03-17T16:12:58.166Z,22.33
2018-03-17T16:15:25.620Z,24.87
2018-03-17T16:17:53.914Z,23.87
2018-03-17T16:20:22.205Z,21.97
2018-03-17T16:22:49.732Z,21.07
2018-03-17T16:25:17.219Z,22.70
2018-03-17T16:27:44.764Z,25.13
2018-03-17T16:30:12.303Z,24.23
2018-03-17T16:32:40.596Z,22.20
2018-03-17T16:35:08.106Z,22.77
2018-03-17T16:37:36.785Z,22.20
2018-03-17T16:40:04.276Z,22.70
2018-03-17T16:42:32.554Z,23.50
2018-03-17T16:45:00.829Z,22.37
2018-03-17T16:47:29.103Z,20.43
2018-03-17T16:49:57.402Z,19.90
2018-03-17T16:52:24.960Z,22.70
2018-03-17T16:54:52.486Z,23.13
2018-03-17T16:57:20.008Z,21.70
2018-03-17T16:59:48.290Z,21.87
2018-03-17T17:02:15.891Z,22.20
2018-03-17T17:04:44.161Z,20.40
2018-03-17T17:07:12.411Z,21.27
2018-03-17T17:09:39.949Z,20.60
2018-03-17T17:12:07.447Z,20.90
2018-03-17T17:14:35.710Z,21.17
2018-03-17T17:17:03.230Z,21.17
2018-03-17T17:19:30.725Z,20.37
2018-03-17T17:21:58.243Z,20.33
2018-03-17T17:24:26.496Z,21.23
2018-03-17T17:26:53.992Z,23.23
2018-03-17T17:29:21.529Z,23.10
2018-03-17T17:31:49.112Z,23.03
2018-03-17T17:34:16.626Z,21.63
2018-03-17T17:36:44.171Z,21.80
2018-03-17T17:39:11.682Z,23.20
2018-03-17T17:41:39.172Z,20.47
2018-03-17T17:44:07.448Z,22.87
2018-03-17T17:46:35.721Z,22.03
2018-03-17T17:49:04.044Z,23.13
2018-03-17T17:51:31.552Z,23.10
2018-03-17T17:53:59.832Z,25.17
2018-03-17T17:56:28.246Z,24.67
2018-03-17T17:58:55.821Z,24.00
2018-03-17T18:01:23.342Z,25.90
2018-03-17T18:03:50.868Z,28.37
2018-03-17T18:06:18.374Z,29.83
2018-03-17T18:08:45.877Z,22.70
2018-03-17T18:11:13.585Z,20.23
2018-03-17T18:13:41.141Z,19.37
2018-03-17T18:16:08.898Z,18.33
2018-03-17T18:18:36.441Z,17.27
2018-03-17T18:21:03.966Z,17.87
2018-03-17T18:23:31.579Z,17.60
2018-03-17T18:25:59.088Z,18.17
2018-03-17T18:28:26.632Z,20.70
2018-03-17T18:30:54.136Z,22.43
2018-03-17T18:33:21.688Z,25.07
2018-03-17T18:36:13.552Z,18.93
2018-03-17T18:38:41.861Z,22.07
2018-03-17T18:41:09.389Z,22.10
2018-03-17T18:43:36.911Z,23.80
2018-03-17T18:46:04.441Z,20.93
2018-03-17T18:48:32.719Z,19.77
2018-03-17T18:51:01.018Z,22.33
2018-03-17T18:53:28.589Z,22.73
2018-03-17T18:55:56.125Z,22.63
2018-03-17T18:58:23.653Z,23.50
2018-03-17T19:00:51.177Z,24.10
2018-03-17T19:03:18.694Z,24.60
2018-03-17T19:05:46.960Z,25.07
2018-03-17T19:08:15.249Z,25.23
2018-03-17T19:10:42.775Z,23.83
2018-03-17T19:13:10.270Z,23.93
2018-03-17T19:15:37.785Z,22.47
2018-03-17T19:18:05.383Z,23.03
2018-03-17T19:20:32.885Z,23.10
2018-03-17T19:23:00.403Z,23.40
2018-03-17T19:25:27.910Z,19.67
2018-03-17T19:27:55.504Z,23.30
2018-03-17T19:30:23.783Z,21.97
2018-03-17T19:32:51.329Z,21.33
2018-03-17T19:35:19.603Z,23.43
2018-03-17T19:37:47.874Z,22.60
2018-03-17T19:40:16.148Z,23.40
2018-03-17T19:42:43.693Z,20.40
2018-03-17T19:45:11.181Z,23.00
2018-03-17T19:47:38.718Z,20.10
2018-03-17T19:50:07.011Z,24.90
2018-03-17T19:52:34.574Z,21.57
2018-03-17T19:55:02.088Z,23.67
2018-03-17T19:57:29.605Z,21.20
2018-03-17T19:59:57.123Z,21.37
2018-03-17T20:02:25.401Z,21.60
2018-03-17T20:04:53.666Z,23.23
2018-03-17T20:07:22.068Z,21.63
2018-03-17T20:09:49.578Z,22.33
2018-03-17T20:12:17.105Z,27.07
2018-03-17T20:14:44.657Z,25.03
2018-03-17T20:17:12.189Z,24.73
2018-03-17T20:19:39.687Z,25.47
2018-03-17T20:22:07.185Z,25.93
2018-03-17T20:24:35.583Z,22.07
2018-03-17T20:27:03.079Z,30.50
2018-03-17T20:29:30.648Z,26.87
2018-03-17T20:31:58.388Z,25.97
2018-03-17T20:34:25.917Z,26.90
2018-03-17T20:36:53.475Z,28.70
2018-03-17T20:39:21.027Z,23.67
2018-03-17T20:41:49.278Z,25.43
2018-03-17T20:44:16.870Z,24.67
2018-03-17T20:46:44.375Z,22.83
2018-03-17T20:49:11.954Z,23.93
2018-03-17T20:51:40.255Z,25.00
2018-03-17T20:54:07.817Z,23.67
2018-03-17T20:56:35.315Z,27.00
2018-03-17T20:59:02.830Z,26.87
2018-03-17T21:01:30.373Z,24.90
2018-03-17T21:03:58.673Z,22.93
2018-03-17T21:06:26.190Z,24.70
2018-03-17T21:08:54.474Z,24.97
2018-03-17T21:11:22.745Z,27.03
2018-03-17T21:13:51.109Z,23.73
2018-03-17T21:16:18.605Z,27.23
2018-03-17T21:18:46.098Z,26.00
2018-03-17T21:21:13.610Z,21.20
2018-03-17T21:23:41.102Z,22.37
2018-03-17T21:26:08.624Z,25.27
2018-03-17T21:28:36.143Z,26.50
2018-03-17T21:31:03.640Z,26.00
2018-03-17T21:33:31.157Z,25.90
2018-03-17T21:35:58.647Z,22.87
2018-03-17T21:38:26.158Z,24.87
2018-03-17T21:40:53.714Z,26.37
2018-03-17T21:43:21.203Z,20.07
2018-03-17T21:45:49.493Z,29.37
2018-03-17T21:48:16.995Z,24.13
2018-03-17T21:50:44.497Z,27.30
2018-03-17T21:53:12.822Z,27.87
2018-03-17T21:55:40.327Z,29.67
2018-03-17T21:58:08.595Z,30.27
2018-03-17T22:00:36.916Z,30.40
2018-03-17T22:03:04.421Z,25.67
2018-03-17T22:05:31.918Z,30.33
2018-03-17T22:07:59.420Z,30.97
2018-03-17T22:10:27.034Z,27.90
2018-03-17T22:12:54.550Z,31.17
2018-03-17T22:15:22.843Z,32.53
2018-03-17T22:17:51.125Z,31.00
2018-03-17T22:20:18.707Z,30.30
2018-03-17T22:22:46.992Z,31.10
2018-03-17T22:25:14.483Z,30.33
2018-03-17T22:27:41.973Z,31.63
2018-03-17T22:30:09.498Z,29.10
2018-03-17T22:32:37.089Z,28.53
2018-03-17T22:35:04.593Z,29.20
2018-03-17T22:37:32.099Z,29.80
2018-03-17T22:39:59.613Z,30.10
2018-03-17T22:42:27.143Z,30.13
2018-03-17T22:44:55.623Z,28.50
2018-03-17T22:47:23.115Z,29.90
2018-03-17T22:49:50.642Z,31.00
2018-03-17T22:52:18.166Z,35.20
2018-03-17T22:54:45.699Z,29.43
2018-03-17T22:57:13.956Z,30.03
2018-03-17T22:59:41.674Z,29.33
2018-03-17T23:02:09.181Z,25.83
2018-03-17T23:04:36.706Z,25.50
2018-03-17T23:07:04.212Z,25.57
2018-03-17T23:09:32.489Z,28.23
2018-03-17T23:12:00.788Z,27.03
2018-03-17T23:14:44.166Z,28.70
2018-03-17T23:17:11.765Z,25.90
2018-03-17T23:19:39.247Z,27.67
2018-03-17T23:22:06.794Z,26.90
2018-03-17T23:24:34.332Z,29.30
2018-03-17T23:27:12.107Z,28.73
2018-03-17T23:29:40.385Z,25.97
2018-03-17T23:32:08.736Z,30.20
2018-03-17T23:34:36.239Z,28.43
2018-03-17T23:37:03.839Z,29.47
2018-03-17T23:39:31.362Z,29.50
2018-03-17T23:41:58.988Z,28.40
2018-03-17T23:44:27.303Z,30.63
2018-03-17T23:46:54.841Z,28.33
2018-03-17T23:49:23.119Z,26.37
2018-03-17T23:51:50.664Z,28.20
2018-03-17T23:54:18.955Z,27.90
2018-03-17T23:56:46.458Z,27.40
2018-03-17T23:59:13.968Z,27.23
